createdAt,value
2022-12-23T00:00:43.738Z,4.26
2022-12-23T00:03:27.454Z,4.29
2022-12-23T00:05:54.255Z,4.31
2022-12-23T00:08:21.785Z,4.33
2022-12-23T00:10:50.429Z,4.36
2022-12-23T00:13:36.753Z,4.37
2022-12-23T00:16:10.291Z,4.39
2022-12-23T00:18:38.029Z,4.41
2022-12-23T00:21:09.111Z,4.44
2022-12-23T00:23:40.297Z,4.47
2022-12-23T00:26:12.352Z,4.50
2022-12-23T00:28:39.133Z,4.51
2022-12-23T00:31:07.299Z,4.54
2022-12-23T00:33:45.297Z,4.58
2022-12-23T00:36:22.723Z,4.60
2022-12-23T00:39:08.886Z,4.64
2022-12-23T00:42:07.814Z,4.67
2022-12-23T00:44:34.513Z,4.70
2022-12-23T00:47:01.319Z,4.72
2022-12-23T00:49:43.357Z,4.75
2022-12-23T00:52:13.208Z,4.77
2022-12-23T00:54:40.116Z,4.79
2022-12-23T00:57:07.163Z,4.81
2022-12-23T00:59:36.393Z,4.82
2022-12-23T01:02:21.912Z,4.84
2022-12-23T01:05:07.566Z,4.84
2022-12-23T01:07:34.451Z,4.85
2022-12-23T01:10:01.303Z,4.86
2022-12-23T01:12:28.261Z,4.86
2022-12-23T01:14:55.125Z,4.87
2022-12-23T01:17:21.867Z,4.87
2022-12-23T01:19:48.855Z,4.88
2022-12-23T01:22:15.730Z,4.90
2022-12-23T01:24:42.548Z,4.91
2022-12-23T01:27:10.548Z,4.92
2022-12-23T01:29:40.321Z,4.94
2022-12-23T01:32:09.806Z,4.94
2022-12-23T01:34:37.695Z,4.94
2022-12-23T01:37:05.817Z,4.95
2022-12-23T01:39:32.571Z,4.97
2022-12-23T01:42:17.789Z,4.99
2022-12-23T01:44:56.088Z,5.01
2022-12-23T01:47:29.069Z,5.03
2022-12-23T01:50:07.232Z,5.05
2022-12-23T01:52:39.449Z,5.06
2022-12-23T01:55:08.511Z,5.07
2022-12-23T01:57:39.623Z,5.09
2022-12-23T02:00:26.745Z,5.10
2022-12-23T02:03:14.756Z,5.11
2022-12-23T02:05:45.345Z,5.12
2022-12-23T02:08:32.800Z,5.13
2022-12-23T02:11:32.284Z,5.13
2022-12-23T02:14:56.022Z,5.14
2022-12-23T02:17:32.098Z,5.15
2022-12-23T02:20:03.100Z,5.16
2022-12-23T02:22:56.115Z,5.18
2022-12-23T02:25:45.612Z,5.19
2022-12-23T02:28:54.138Z,5.20
2022-12-23T02:31:27.272Z,5.22
2022-12-23T02:34:15.025Z,5.23
2022-12-23T02:37:04.555Z,5.24
2022-12-23T02:39:54.006Z,5.26
2022-12-23T02:42:25.823Z,5.29
2022-12-23T02:45:19.270Z,5.30
2022-12-23T02:47:58.871Z,5.32
2022-12-23T02:50:31.809Z,5.33
2022-12-23T02:53:06.314Z,5.34
2022-12-23T02:55:36.286Z,5.35
2022-12-23T02:58:09.282Z,5.35
2022-12-23T03:00:40.041Z,5.36
2022-12-23T03:03:06.725Z,5.36
2022-12-23T03:05:42.208Z,5.35
2022-12-23T03:08:23.291Z,5.36
2022-12-23T03:10:59.040Z,5.36
2022-12-23T03:13:36.786Z,5.36
2022-12-23T03:16:24.869Z,5.37
2022-12-23T03:19:07.008Z,5.40
2022-12-23T03:22:08.355Z,5.42
2022-12-23T03:24:43.492Z,5.44
2022-12-23T03:27:14.981Z,5.44
2022-12-23T03:29:54.099Z,5.44
2022-12-23T03:32:21.740Z,5.45
2022-12-23T03:34:52.759Z,5.46
2022-12-23T03:37:22.000Z,5.47
2022-12-23T03:40:15.450Z,5.49
2022-12-23T03:42:46.363Z,5.49
2022-12-23T03:45:40.791Z,5.49
2022-12-23T03:48:33.647Z,5.49
2022-12-23T03:51:17.639Z,5.49
2022-12-23T03:54:10.005Z,5.49
2022-12-23T03:56:49.068Z,5.47
2022-12-23T03:59:32.348Z,5.45
2022-12-23T04:02:15.202Z,5.45
2022-12-23T04:05:19.783Z,5.46
2022-12-23T04:07:55.886Z,5.48
2022-12-23T04:10:24.431Z,5.49
2022-12-23T04:12:52.105Z,5.50
2022-12-23T04:15:21.725Z,5.52
2022-12-23T04:17:50.321Z,5.54
2022-12-23T04:20:17.532Z,5.55
2022-12-23T04:22:44.368Z,5.56
2022-12-23T04:25:13.256Z,5.57
2022-12-23T04:27:40.416Z,5.57
2022-12-23T04:30:09.322Z,5.57
2022-12-23T04:32:36.509Z,5.58
2022-12-23T04:35:04.179Z,5.59
2022-12-23T04:37:30.958Z,5.59
2022-12-23T04:39:57.808Z,5.61
2022-12-23T04:42:24.634Z,5.60
2022-12-23T04:44:51.268Z,5.61
2022-12-23T04:47:18.826Z,5.60
2022-12-23T04:49:46.999Z,5.60
2022-12-23T04:52:13.874Z,5.61
2022-12-23T04:54:45.824Z,5.61
2022-12-23T04:57:14.642Z,5.62
2022-12-23T04:59:42.011Z,5.63
2022-12-23T05:02:09.677Z,5.64
2022-12-23T05:04:36.859Z,5.63
2022-12-23T05:07:03.757Z,5.55
2022-12-23T05:09:30.645Z,5.51
2022-12-23T05:12:01.741Z,5.50
2022-12-23T05:14:28.550Z,5.50
2022-12-23T05:17:03.579Z,5.53
2022-12-23T05:19:33.922Z,5.54
2022-12-23T05:22:00.983Z,5.54
2022-12-23T05:24:30.567Z,5.56
2022-12-23T05:27:00.717Z,5.57
2022-12-23T05:29:34.739Z,5.60
2022-12-23T05:32:02.207Z,5.62
2022-12-23T05:34:29.114Z,5.63
2022-12-23T05:36:56.105Z,5.65
2022-12-23T05:39:25.633Z,5.66
2022-12-23T05:41:55.017Z,5.69
2022-12-23T05:44:24.289Z,5.70
2022-12-23T05:46:58.690Z,5.71
2022-12-23T05:49:26.169Z,5.71
2022-12-23T05:51:55.015Z,5.71
2022-12-23T05:54:21.795Z,5.71
2022-12-23T05:56:49.132Z,5.71
2022-12-23T05:59:15.991Z,5.70
2022-12-23T06:01:42.929Z,5.70
2022-12-23T06:04:10.090Z,5.69
2022-12-23T06:06:38.067Z,5.69
2022-12-23T06:09:05.173Z,5.66
2022-12-23T06:11:32.145Z,5.64
2022-12-23T06:13:58.992Z,5.65
2022-12-23T06:16:25.974Z,5.65
2022-12-23T06:18:56.228Z,5.64
2022-12-23T06:21:25.146Z,5.62
2022-12-23T06:23:52.890Z,5.63
2022-12-23T06:26:20.666Z,5.63
2022-12-23T06:28:48.153Z,5.63
2022-12-23T06:31:15.338Z,5.63
2022-12-23T06:33:42.145Z,5.63
2022-12-23T06:36:09.112Z,5.63
2022-12-23T06:38:36.010Z,5.63
2022-12-23T06:41:02.991Z,5.63
2022-12-23T06:43:29.830Z,5.63
2022-12-23T06:45:56.681Z,5.63
2022-12-23T06:48:23.781Z,5.64
2022-12-23T06:50:50.588Z,5.66
2022-12-23T06:53:17.507Z,5.69
2022-12-23T06:55:45.007Z,5.69
2022-12-23T06:58:11.975Z,5.71
2022-12-23T07:00:38.811Z,5.72
2022-12-23T07:03:06.284Z,5.74
2022-12-23T07:05:37.605Z,5.75
2022-12-23T07:08:05.160Z,5.77
2022-12-23T07:10:34.282Z,5.77
2022-12-23T07:13:02.120Z,5.75
2022-12-23T07:15:28.811Z,5.73
2022-12-23T07:17:55.666Z,5.71
2022-12-23T07:20:22.552Z,5.70
2022-12-23T07:22:49.928Z,5.72
2022-12-23T07:25:16.781Z,5.74
2022-12-23T07:27:43.882Z,5.75
2022-12-23T07:30:11.088Z,5.71
2022-12-23T07:32:37.903Z,5.70
2022-12-23T07:35:07.527Z,5.72
2022-12-23T07:37:34.838Z,5.74
2022-12-23T07:40:08.335Z,5.78
2022-12-23T07:42:46.822Z,5.81
2022-12-23T07:45:25.504Z,5.85
2022-12-23T07:47:54.029Z,5.89
2022-12-23T07:50:21.929Z,5.93
2022-12-23T07:52:52.216Z,5.96
2022-12-23T07:55:23.358Z,5.98
2022-12-23T07:57:52.108Z,6.00
2022-12-23T08:00:20.650Z,6.02
2022-12-23T08:02:47.955Z,6.03
2022-12-23T08:05:15.904Z,6.05
2022-12-23T08:07:49.525Z,6.08
2022-12-23T08:10:17.042Z,6.11
2022-12-23T08:12:45.849Z,6.13
2022-12-23T08:15:20.923Z,6.15
2022-12-23T08:18:06.096Z,6.17
2022-12-23T08:20:35.288Z,6.20
2022-12-23T08:23:24.687Z,6.23
2022-12-23T08:26:33.043Z,6.24
2022-12-23T08:29:39.614Z,6.26
2022-12-23T08:32:09.372Z,6.28
2022-12-23T08:34:39.388Z,6.31
2022-12-23T08:37:06.322Z,6.36
2022-12-23T08:39:33.373Z,6.41
2022-12-23T08:42:00.788Z,6.43
2022-12-23T08:44:33.207Z,6.46
2022-12-23T08:47:01.762Z,6.49
2022-12-23T08:49:28.823Z,6.52
2022-12-23T08:51:55.748Z,6.55
2022-12-23T08:54:24.725Z,6.58
2022-12-23T08:56:56.330Z,6.60
2022-12-23T08:59:25.663Z,6.61
2022-12-23T09:01:52.549Z,6.63
2022-12-23T09:04:23.808Z,6.65
2022-12-23T09:06:53.171Z,6.66
2022-12-23T09:09:20.353Z,6.69
2022-12-23T09:11:51.631Z,6.72
2022-12-23T09:14:18.815Z,6.74
2022-12-23T09:16:51.299Z,6.76
2022-12-23T09:19:25.922Z,6.78
2022-12-23T09:21:53.231Z,6.79
2022-12-23T09:24:32.051Z,6.81
2022-12-23T09:27:06.370Z,6.81
2022-12-23T09:29:33.423Z,6.80
2022-12-23T09:32:28.102Z,6.80
2022-12-23T09:34:57.683Z,6.82
2022-12-23T09:37:31.446Z,6.83
2022-12-23T09:40:02.752Z,6.84
2022-12-23T09:42:35.876Z,6.85
2022-12-23T09:46:06.117Z,6.85
2022-12-23T09:48:47.105Z,6.86
2022-12-23T09:51:19.226Z,6.88
2022-12-23T09:54:17.192Z,6.88
2022-12-23T09:56:53.588Z,6.88
2022-12-23T09:59:50.812Z,6.90
2022-12-23T10:02:29.952Z,6.91
2022-12-23T10:05:19.289Z,6.92
2022-12-23T10:08:22.952Z,6.94
2022-12-23T10:11:16.645Z,6.94
2022-12-23T10:14:20.551Z,6.94
2022-12-23T10:16:59.532Z,6.95
2022-12-23T10:19:42.701Z,6.93
2022-12-23T10:22:28.710Z,6.92
2022-12-23T10:25:01.524Z,6.91
2022-12-23T10:27:49.998Z,6.91
2022-12-23T10:33:21.389Z,6.96
2022-12-23T10:36:10.791Z,7.00
2022-12-23T10:38:54.007Z,7.04
2022-12-23T10:41:23.675Z,7.07
2022-12-23T10:44:18.191Z,7.09
2022-12-23T10:47:00.314Z,7.09
2022-12-23T10:49:42.564Z,7.10
2022-12-23T10:52:15.987Z,7.12
2022-12-23T10:54:46.619Z,7.14
2022-12-23T10:57:17.133Z,7.17
2022-12-23T10:59:44.267Z,7.20
2022-12-23T11:02:13.713Z,7.25
2022-12-23T11:04:43.788Z,7.31
2022-12-23T11:07:49.165Z,7.37
2022-12-23T11:10:20.273Z,7.37
2022-12-23T11:12:57.403Z,7.36
2022-12-23T11:15:35.931Z,7.34
2022-12-23T11:18:08.546Z,7.30
2022-12-23T11:20:39.395Z,7.29
2022-12-23T11:23:24.315Z,7.27
2022-12-23T11:26:10.408Z,7.26
2022-12-23T11:28:46.861Z,7.27
2022-12-23T11:31:17.649Z,7.31
2022-12-23T11:34:02.162Z,7.40
2022-12-23T11:36:32.141Z,7.50
2022-12-23T11:39:14.304Z,7.59
2022-12-23T11:41:47.316Z,7.68
2022-12-23T11:44:30.085Z,7.75
2022-12-23T11:47:06.845Z,7.82
2022-12-23T11:49:33.745Z,7.90
2022-12-23T11:52:14.374Z,7.98
2022-12-23T11:54:54.229Z,8.04
2022-12-23T11:57:51.276Z,8.10
2022-12-23T12:00:27.186Z,8.17
2022-12-23T12:03:03.220Z,8.23
2022-12-23T12:05:41.030Z,8.29
2022-12-23T12:08:14.783Z,8.35
2022-12-23T12:11:04.447Z,8.39
2022-12-23T12:13:38.176Z,8.42
2022-12-23T12:16:18.135Z,8.42
2022-12-23T12:18:52.091Z,8.40
2022-12-23T12:21:27.795Z,8.45
2022-12-23T12:24:24.112Z,8.53
2022-12-23T12:26:54.113Z,8.59
2022-12-23T12:29:31.395Z,8.64
2022-12-23T12:32:54.467Z,8.61
2022-12-23T12:35:31.047Z,8.60
2022-12-23T12:38:19.442Z,8.62
2022-12-23T12:40:54.147Z,8.66
2022-12-23T12:43:31.297Z,8.71
2022-12-23T12:46:10.168Z,8.77
2022-12-23T12:48:47.734Z,8.75
2022-12-23T12:51:27.146Z,8.69
2022-12-23T12:54:06.559Z,8.61
2022-12-23T12:56:41.280Z,8.53
2022-12-23T12:59:15.927Z,8.48
2022-12-23T13:01:45.720Z,8.45
2022-12-23T13:04:15.494Z,8.43
2022-12-23T13:07:01.607Z,8.42
2022-12-23T13:09:40.335Z,8.40
2022-12-23T13:12:17.616Z,8.40
2022-12-23T13:15:10.741Z,8.41
2022-12-23T13:18:03.650Z,8.41
2022-12-23T13:21:06.774Z,8.39
2022-12-23T13:24:03.781Z,8.37
2022-12-23T13:27:25.810Z,8.36
2022-12-23T13:30:23.000Z,8.36
2022-12-23T13:33:38.068Z,8.36
2022-12-23T13:36:12.572Z,8.36
2022-12-23T13:39:02.452Z,8.36
2022-12-23T13:41:40.005Z,8.33
2022-12-23T13:44:12.412Z,8.32
2022-12-23T13:46:50.946Z,8.32
2022-12-23T13:49:44.493Z,8.31
2022-12-23T13:52:22.936Z,8.31
2022-12-23T13:54:58.084Z,8.29
2022-12-23T13:57:35.145Z,8.30
2022-12-23T14:00:18.430Z,8.28
2022-12-23T14:03:16.331Z,8.28
2022-12-23T14:05:45.700Z,8.27
2022-12-23T14:08:18.463Z,8.26
2022-12-23T14:11:00.496Z,8.24
2022-12-23T14:13:33.567Z,8.23
2022-12-23T14:16:16.580Z,8.20
2022-12-23T14:19:00.804Z,8.17
2022-12-23T14:21:52.711Z,8.14
2022-12-23T14:24:47.889Z,8.11
2022-12-23T14:27:33.358Z,8.08
2022-12-23T14:30:25.223Z,8.06
2022-12-23T14:32:58.231Z,8.04
2022-12-23T14:35:33.384Z,8.03
2022-12-23T14:38:14.236Z,8.02
2022-12-23T14:40:53.175Z,7.99
2022-12-23T14:43:23.067Z,7.96
2022-12-23T14:45:52.894Z,7.94
2022-12-23T14:48:35.053Z,7.92
2022-12-23T14:51:22.592Z,7.90
2022-12-23T14:53:53.125Z,7.88
2022-12-23T14:56:46.906Z,7.87
2022-12-23T14:59:46.521Z,7.84
2022-12-23T15:02:21.997Z,7.82
2022-12-23T15:04:54.036Z,7.80
2022-12-23T15:07:40.155Z,7.79
2022-12-23T15:10:16.266Z,7.77
2022-12-23T15:12:47.751Z,7.75
2022-12-23T15:15:49.835Z,7.72
2022-12-23T15:18:16.535Z,7.70
2022-12-23T15:20:47.963Z,7.68
2022-12-23T15:23:17.565Z,7.67
2022-12-23T15:25:47.326Z,7.66
2022-12-23T15:28:17.511Z,7.64
2022-12-23T15:30:56.131Z,7.62
2022-12-23T15:36:31.409Z,7.61
2022-12-23T15:39:00.135Z,7.62
2022-12-23T15:41:28.676Z,7.61
2022-12-23T15:44:02.969Z,7.61
2022-12-23T15:46:31.162Z,7.60
2022-12-23T15:49:21.287Z,7.60
2022-12-23T15:52:12.592Z,7.59
2022-12-23T15:54:51.181Z,7.57
2022-12-23T15:57:20.905Z,7.54
2022-12-23T15:59:48.529Z,7.51
2022-12-23T16:05:33.809Z,7.38
2022-12-23T16:08:12.807Z,7.27
2022-12-23T16:10:44.780Z,7.16
2022-12-23T16:13:19.881Z,7.07
2022-12-23T16:15:46.795Z,6.98
2022-12-23T16:18:32.107Z,6.92
2022-12-23T16:21:05.849Z,6.86
2022-12-23T16:23:43.381Z,6.80
2022-12-23T16:26:12.419Z,6.78
2022-12-23T16:28:46.580Z,6.77
2022-12-23T16:31:19.167Z,6.81
2022-12-23T16:33:57.898Z,6.86
2022-12-23T16:36:24.618Z,6.92
2022-12-23T16:39:23.440Z,6.97
2022-12-23T16:41:51.407Z,7.03
2022-12-23T16:44:19.375Z,7.07
2022-12-23T16:46:53.830Z,7.13
2022-12-23T16:49:33.765Z,7.16
2022-12-23T16:52:19.258Z,7.18
2022-12-23T16:54:51.772Z,7.20
2022-12-23T16:57:19.596Z,7.22
2022-12-23T16:59:49.879Z,7.24
2022-12-23T17:02:21.983Z,7.25
2022-12-23T17:04:48.631Z,7.26
2022-12-23T17:07:15.601Z,7.27
2022-12-23T17:09:42.685Z,7.28
2022-12-23T17:12:13.291Z,7.29
2022-12-23T17:14:43.762Z,7.30
2022-12-23T17:17:15.014Z,7.31
2022-12-23T17:19:43.014Z,7.32
2022-12-23T17:22:14.436Z,7.33
2022-12-23T17:24:44.338Z,7.33
2022-12-23T17:27:13.765Z,7.34
2022-12-23T17:29:44.932Z,7.35
2022-12-23T17:32:16.026Z,7.36
2022-12-23T17:34:43.036Z,7.36
2022-12-23T17:37:18.996Z,7.36
2022-12-23T17:39:47.246Z,7.37
2022-12-23T17:42:25.840Z,7.38
2022-12-23T17:44:53.074Z,7.39
2022-12-23T17:47:22.118Z,7.41
2022-12-23T17:49:50.772Z,7.42
2022-12-23T17:52:22.633Z,7.46
2022-12-23T17:54:51.229Z,7.47
2022-12-23T17:57:23.390Z,7.48
2022-12-23T17:59:52.290Z,7.50
2022-12-23T18:02:34.320Z,7.51
2022-12-23T18:05:28.819Z,7.53
2022-12-23T18:07:59.233Z,7.53
2022-12-23T18:10:40.054Z,7.55
2022-12-23T18:13:14.886Z,7.57
2022-12-23T18:16:02.784Z,7.58
2022-12-23T18:18:39.296Z,7.60
2022-12-23T18:21:32.974Z,7.62
2022-12-23T18:24:09.524Z,7.64
2022-12-23T18:26:36.387Z,7.66
2022-12-23T18:29:03.380Z,7.67
2022-12-23T18:31:30.408Z,7.69
2022-12-23T18:34:00.462Z,7.70
2022-12-23T18:36:37.627Z,7.72
2022-12-23T18:39:04.491Z,7.74
2022-12-23T18:41:31.334Z,7.76
2022-12-23T18:43:58.163Z,7.77
2022-12-23T18:46:24.908Z,7.79
2022-12-23T18:48:51.744Z,7.81
2022-12-23T18:51:23.228Z,7.82
2022-12-23T18:53:49.964Z,7.84
2022-12-23T18:56:20.405Z,7.86
2022-12-23T18:58:47.098Z,7.87
2022-12-23T19:01:15.741Z,7.88
2022-12-23T19:03:43.000Z,7.89
2022-12-23T19:06:14.956Z,7.91
2022-12-23T19:08:44.851Z,7.91
2022-12-23T19:11:17.607Z,7.93
2022-12-23T19:13:45.296Z,7.94
2022-12-23T19:16:19.919Z,7.95
2022-12-23T19:18:48.229Z,7.96
2022-12-23T19:21:16.976Z,7.97
2022-12-23T19:23:48.614Z,7.98
2022-12-23T19:26:22.686Z,7.98
2022-12-23T19:28:52.229Z,7.99
2022-12-23T19:31:19.245Z,7.99
2022-12-23T19:33:51.128Z,7.99
2022-12-23T19:36:23.668Z,8.00
2022-12-23T19:38:50.683Z,8.02
2022-12-23T19:41:18.446Z,8.03
2022-12-23T19:43:46.847Z,8.05
2022-12-23T19:46:15.097Z,8.06
2022-12-23T19:48:42.103Z,8.07
2022-12-23T19:51:11.471Z,8.08
2022-12-23T19:53:39.741Z,8.09
2022-12-23T19:56:16.281Z,8.10
2022-12-23T19:58:45.264Z,8.11
2022-12-23T20:01:23.386Z,8.13
2022-12-23T20:03:52.215Z,8.16
2022-12-23T20:06:29.251Z,8.18
2022-12-23T20:09:03.703Z,8.19
2022-12-23T20:11:35.159Z,8.21
2022-12-23T20:14:04.006Z,8.21
2022-12-23T20:16:31.078Z,8.22
2022-12-23T20:18:57.927Z,8.24
2022-12-23T20:21:24.746Z,8.25
2022-12-23T20:23:54.737Z,8.27
2022-12-23T20:26:23.202Z,8.28
2022-12-23T20:28:55.591Z,8.26
2022-12-23T20:31:31.762Z,8.21
2022-12-23T20:34:00.748Z,8.17
2022-12-23T20:36:30.327Z,8.13
2022-12-23T20:38:57.519Z,8.07
2022-12-23T20:41:27.553Z,8.02
2022-12-23T20:44:32.232Z,7.98
2022-12-23T20:46:41.694Z,7.97
2022-12-23T20:49:11.372Z,7.97
2022-12-23T20:51:38.716Z,7.99
2022-12-23T20:54:05.460Z,8.01
2022-12-23T20:56:33.245Z,8.04
2022-12-23T20:59:03.399Z,8.05
2022-12-23T21:01:38.619Z,8.06
2022-12-23T21:04:11.189Z,8.07
2022-12-23T21:06:38.519Z,8.07
2022-12-23T21:09:08.167Z,8.08
2022-12-23T21:11:38.191Z,8.07
2022-12-23T21:14:07.207Z,8.06
2022-12-23T21:16:36.206Z,8.06
2022-12-23T21:19:04.562Z,8.05
2022-12-23T21:21:31.284Z,8.02
2022-12-23T21:24:00.982Z,7.98
2022-12-23T21:26:30.369Z,7.93
2022-12-23T21:28:59.513Z,7.87
2022-12-23T21:31:28.126Z,7.81
2022-12-23T21:33:56.087Z,7.76
2022-12-23T21:36:34.923Z,7.72
2022-12-23T21:39:02.983Z,7.67
2022-12-23T21:41:31.422Z,7.64
2022-12-23T21:43:59.589Z,7.64
2022-12-23T21:46:28.082Z,7.65
2022-12-23T21:48:56.972Z,7.64
2022-12-23T21:51:36.652Z,7.64
2022-12-23T21:54:07.165Z,7.61
2022-12-23T21:56:34.246Z,7.56
2022-12-23T21:59:12.276Z,7.52
2022-12-23T22:01:42.752Z,7.48
2022-12-23T22:04:12.774Z,7.45
2022-12-23T22:06:51.082Z,7.42
2022-12-23T22:09:19.058Z,7.41
2022-12-23T22:11:47.542Z,7.43
2022-12-23T22:14:17.034Z,7.45
2022-12-23T22:16:48.427Z,7.47
2022-12-23T22:19:20.359Z,7.48
2022-12-23T22:21:59.447Z,7.47
2022-12-23T22:24:28.454Z,7.45
2022-12-23T22:26:58.995Z,7.41
2022-12-23T22:29:32.604Z,7.39
2022-12-23T22:32:03.302Z,7.36
2022-12-23T22:34:31.794Z,7.33
2022-12-23T22:37:01.807Z,7.32
2022-12-23T22:39:38.360Z,7.34
2022-12-23T22:42:29.522Z,7.38
2022-12-23T22:45:01.840Z,7.43
2022-12-23T22:47:47.181Z,7.48
2022-12-23T22:50:19.995Z,7.52
2022-12-23T22:52:50.587Z,7.55
2022-12-23T22:55:24.037Z,7.58
2022-12-23T22:57:59.759Z,7.62
2022-12-23T23:00:29.058Z,7.65
2022-12-23T23:02:59.861Z,7.65
2022-12-23T23:05:26.726Z,7.63
2022-12-23T23:08:01.710Z,7.59
2022-12-23T23:10:31.071Z,7.51
2022-12-23T23:13:01.152Z,7.46
2022-12-23T23:15:30.591Z,7.43
2022-12-23T23:17:59.779Z,7.43
2022-12-23T23:20:26.572Z,7.44
2022-12-23T23:22:55.857Z,7.44
2022-12-23T23:25:26.368Z,7.45
2022-12-23T23:27:53.166Z,7.47
2022-12-23T23:30:19.968Z,7.49
2022-12-23T23:32:46.934Z,7.49
2022-12-23T23:35:18.002Z,7.49
2022-12-23T23:37:54.109Z,7.50
2022-12-23T23:40:23.382Z,7.50
2022-12-23T23:42:50.112Z,7.51
2022-12-23T23:45:18.111Z,7.51
2022-12-23T23:47:44.866Z,7.51
2022-12-23T23:50:11.540Z,7.53
2022-12-23T23:52:38.190Z,7.54
2022-12-23T23:55:05.799Z,7.54
2022-12-23T23:57:36.867Z,7.54
